sensor_id;sensor_type;location;lat;lon;timestamp;P1;durP1;ratioP1;P2;durP2;ratioP2
15831;SDS011;8016;49.928;9.372;2022-08-03T00:01:24;4.13;;;3.50;;
15831;SDS011;8016;49.928;9.372;2022-08-03T00:03:50;4.37;;;3.80;;
15831;SDS011;8016;49.928;9.372;2022-08-03T00:06:16;4.70;;;3.80;;
15831;SDS011;8016;49.928;9.372;2022-08-03T00:08:43;3.63;;;3.33;;
15831;SDS011;8016;49.928;9.372;2022-08-03T00:11:09;3.57;;;3.27;;
15831;SDS011;8016;49.928;9.372;2022-08-03T00:13:35;3.70;;;3.40;;
15831;SDS011;8016;49.928;9.372;2022-08-03T00:16:01;3.87;;;3.57;;
15831;SDS011;8016;49.928;9.372;2022-08-03T00:18:27;4.20;;;3.73;;
15831;SDS011;8016;49.928;9.372;2022-08-03T00:20:53;5.30;;;3.90;;
15831;SDS011;8016;49.928;9.372;2022-08-03T00:23:19;4.10;;;3.80;;
15831;SDS011;8016;49.928;9.372;2022-08-03T00:25:45;3.60;;;3.30;;
15831;SDS011;8016;49.928;9.372;2022-08-03T00:28:11;4.10;;;3.37;;
15831;SDS011;8016;49.928;9.372;2022-08-03T00:30:37;3.90;;;3.60;;
15831;SDS011;8016;49.928;9.372;2022-08-03T00:33:03;4.30;;;3.90;;
15831;SDS011;8016;49.928;9.372;2022-08-03T00:35:29;3.73;;;3.43;;
15831;SDS011;8016;49.928;9.372;2022-08-03T00:37:55;4.47;;;3.40;;
15831;SDS011;8016;49.928;9.372;2022-08-03T00:40:22;3.90;;;3.60;;
15831;SDS011;8016;49.928;9.372;2022-08-03T00:42:58;5.97;;;3.63;;
15831;SDS011;8016;49.928;9.372;2022-08-03T00:45:25;4.43;;;3.67;;
15831;SDS011;8016;49.928;9.372;2022-08-03T00:47:51;4.23;;;3.33;;
15831;SDS011;8016;49.928;9.372;2022-08-03T00:50:18;4.43;;;3.40;;
15831;SDS011;8016;49.928;9.372;2022-08-03T00:52:44;3.53;;;3.33;;
15831;SDS011;8016;49.928;9.372;2022-08-03T00:55:11;4.10;;;3.73;;
15831;SDS011;8016;49.928;9.372;2022-08-03T00:57:37;4.50;;;4.10;;
15831;SDS011;8016;49.928;9.372;2022-08-03T01:00:07;3.87;;;3.57;;
15831;SDS011;8016;49.928;9.372;2022-08-03T01:02:34;4.30;;;3.90;;
15831;SDS011;8016;49.928;9.372;2022-08-03T01:05:00;4.00;;;3.70;;
15831;SDS011;8016;49.928;9.372;2022-08-03T01:07:36;3.87;;;3.57;;
15831;SDS011;8016;49.928;9.372;2022-08-03T01:12:53;3.93;;;3.63;;
15831;SDS011;8016;49.928;9.372;2022-08-03T01:15:27;3.80;;;3.50;;
15831;SDS011;8016;49.928;9.372;2022-08-03T01:17:55;4.30;;;4.00;;
15831;SDS011;8016;49.928;9.372;2022-08-03T01:20:22;3.60;;;3.30;;
15831;SDS011;8016;49.928;9.372;2022-08-03T01:25:30;4.47;;;4.03;;
15831;SDS011;8016;49.928;9.372;2022-08-03T01:30:42;3.90;;;3.60;;
15831;SDS011;8016;49.928;9.372;2022-08-03T01:33:15;4.00;;;3.70;;
15831;SDS011;8016;49.928;9.372;2022-08-03T01:35:46;3.60;;;3.40;;
15831;SDS011;8016;49.928;9.372;2022-08-03T01:38:34;5.33;;;3.80;;
15831;SDS011;8016;49.928;9.372;2022-08-03T01:41:13;4.93;;;3.30;;
15831;SDS011;8016;49.928;9.372;2022-08-03T01:43:41;3.17;;;2.87;;
15831;SDS011;8016;49.928;9.372;2022-08-03T01:46:07;3.90;;;3.60;;
15831;SDS011;8016;49.928;9.372;2022-08-03T01:48:35;4.20;;;3.87;;
15831;SDS011;8016;49.928;9.372;2022-08-03T01:51:02;3.77;;;3.47;;
15831;SDS011;8016;49.928;9.372;2022-08-03T01:53:28;4.90;;;4.13;;
15831;SDS011;8016;49.928;9.372;2022-08-03T01:55:56;6.97;;;3.73;;
15831;SDS011;8016;49.928;9.372;2022-08-03T01:58:23;4.97;;;3.90;;
15831;SDS011;8016;49.928;9.372;2022-08-03T02:00:49;3.67;;;3.37;;
15831;SDS011;8016;49.928;9.372;2022-08-03T02:03:16;4.47;;;4.07;;
15831;SDS011;8016;49.928;9.372;2022-08-03T02:05:44;4.70;;;3.87;;
15831;SDS011;8016;49.928;9.372;2022-08-03T02:08:12;4.43;;;4.10;;
15831;SDS011;8016;49.928;9.372;2022-08-03T02:10:39;5.60;;;3.93;;
15831;SDS011;8016;49.928;9.372;2022-08-03T02:13:06;5.73;;;3.83;;
15831;SDS011;8016;49.928;9.372;2022-08-03T02:15:33;3.73;;;3.33;;
15831;SDS011;8016;49.928;9.372;2022-08-03T02:18:00;4.47;;;4.07;;
15831;SDS011;8016;49.928;9.372;2022-08-03T02:20:27;4.83;;;4.43;;
15831;SDS011;8016;49.928;9.372;2022-08-03T02:22:56;4.13;;;3.73;;
15831;SDS011;8016;49.928;9.372;2022-08-03T02:25:22;4.90;;;3.50;;
15831;SDS011;8016;49.928;9.372;2022-08-03T02:27:54;4.80;;;4.40;;
15831;SDS011;8016;49.928;9.372;2022-08-03T02:30:20;4.17;;;3.87;;
15831;SDS011;8016;49.928;9.372;2022-08-03T02:32:47;4.50;;;4.10;;
15831;SDS011;8016;49.928;9.372;2022-08-03T02:35:16;5.00;;;4.10;;
15831;SDS011;8016;49.928;9.372;2022-08-03T02:37:45;3.90;;;3.60;;
15831;SDS011;8016;49.928;9.372;2022-08-03T02:40:11;4.60;;;4.20;;
15831;SDS011;8016;49.928;9.372;2022-08-03T02:42:38;3.97;;;3.63;;
15831;SDS011;8016;49.928;9.372;2022-08-03T02:45:05;4.40;;;3.80;;
15831;SDS011;8016;49.928;9.372;2022-08-03T02:47:32;4.60;;;4.10;;
15831;SDS011;8016;49.928;9.372;2022-08-03T02:49:59;4.37;;;3.97;;
15831;SDS011;8016;49.928;9.372;2022-08-03T02:52:27;4.53;;;3.70;;
15831;SDS011;8016;49.928;9.372;2022-08-03T02:54:55;4.50;;;4.10;;
15831;SDS011;8016;49.928;9.372;2022-08-03T02:57:22;4.57;;;4.18;;
15831;SDS011;8016;49.928;9.372;2022-08-03T02:59:50;3.97;;;3.57;;
15831;SDS011;8016;49.928;9.372;2022-08-03T03:02:16;6.37;;;3.53;;
15831;SDS011;8016;49.928;9.372;2022-08-03T03:04:43;4.00;;;3.70;;
15831;SDS011;8016;49.928;9.372;2022-08-03T03:07:10;4.80;;;3.90;;
15831;SDS011;8016;49.928;9.372;2022-08-03T03:09:37;4.47;;;4.07;;
15831;SDS011;8016;49.928;9.372;2022-08-03T03:12:03;3.93;;;3.63;;
15831;SDS011;8016;49.928;9.372;2022-08-03T03:14:29;4.33;;;4.03;;
15831;SDS011;8016;49.928;9.372;2022-08-03T03:16:55;4.17;;;3.87;;
15831;SDS011;8016;49.928;9.372;2022-08-03T03:19:21;4.60;;;3.70;;
15831;SDS011;8016;49.928;9.372;2022-08-03T03:21:48;4.87;;;3.57;;
15831;SDS011;8016;49.928;9.372;2022-08-03T03:24:15;6.50;;;4.00;;
15831;SDS011;8016;49.928;9.372;2022-08-03T03:26:41;4.77;;;4.37;;
15831;SDS011;8016;49.928;9.372;2022-08-03T03:29:08;5.53;;;4.43;;
15831;SDS011;8016;49.928;9.372;2022-08-03T03:31:34;4.70;;;4.40;;
15831;SDS011;8016;49.928;9.372;2022-08-03T03:34:01;4.17;;;3.87;;
15831;SDS011;8016;49.928;9.372;2022-08-03T03:36:27;5.03;;;4.50;;
15831;SDS011;8016;49.928;9.372;2022-08-03T03:38:53;5.07;;;4.57;;
15831;SDS011;8016;49.928;9.372;2022-08-03T03:41:19;4.20;;;3.80;;
15831;SDS011;8016;49.928;9.372;2022-08-03T03:43:45;4.57;;;4.17;;
15831;SDS011;8016;49.928;9.372;2022-08-03T03:46:11;4.73;;;3.70;;
15831;SDS011;8016;49.928;9.372;2022-08-03T03:48:38;5.67;;;4.40;;
15831;SDS011;8016;49.928;9.372;2022-08-03T03:51:04;4.40;;;4.00;;
15831;SDS011;8016;49.928;9.372;2022-08-03T03:53:30;9.13;;;5.10;;
15831;SDS011;8016;49.928;9.372;2022-08-03T03:55:56;4.87;;;3.90;;
15831;SDS011;8016;49.928;9.372;2022-08-03T03:58:22;4.67;;;4.27;;
15831;SDS011;8016;49.928;9.372;2022-08-03T04:00:48;4.57;;;4.20;;
15831;SDS011;8016;49.928;9.372;2022-08-03T04:03:14;4.90;;;4.37;;
15831;SDS011;8016;49.928;9.372;2022-08-03T04:05:40;3.77;;;3.47;;
15831;SDS011;8016;49.928;9.372;2022-08-03T04:08:24;3.50;;;3.30;;
15831;SDS011;8016;49.928;9.372;2022-08-03T04:11:19;4.50;;;4.10;;
15831;SDS011;8016;49.928;9.372;2022-08-03T04:13:53;4.67;;;4.27;;
15831;SDS011;8016;49.928;9.372;2022-08-03T04:16:21;5.77;;;4.37;;
15831;SDS011;8016;49.928;9.372;2022-08-03T04:18:50;6.27;;;4.87;;
15831;SDS011;8016;49.928;9.372;2022-08-03T04:21:17;4.63;;;4.23;;
15831;SDS011;8016;49.928;9.372;2022-08-03T04:23:45;4.30;;;4.00;;
15831;SDS011;8016;49.928;9.372;2022-08-03T04:26:12;4.37;;;4.07;;
15831;SDS011;8016;49.928;9.372;2022-08-03T04:28:40;5.87;;;4.50;;
15831;SDS011;8016;49.928;9.372;2022-08-03T04:31:06;4.50;;;4.20;;
15831;SDS011;8016;49.928;9.372;2022-08-03T04:33:33;4.23;;;3.93;;
15831;SDS011;8016;49.928;9.372;2022-08-03T04:36:00;4.53;;;4.13;;
15831;SDS011;8016;49.928;9.372;2022-08-03T04:38:32;4.70;;;4.30;;
15831;SDS011;8016;49.928;9.372;2022-08-03T04:41:01;5.23;;;4.23;;
15831;SDS011;8016;49.928;9.372;2022-08-03T04:43:27;4.10;;;3.80;;
15831;SDS011;8016;49.928;9.372;2022-08-03T04:45:54;4.77;;;4.30;;
15831;SDS011;8016;49.928;9.372;2022-08-03T04:48:21;6.27;;;4.13;;
15831;SDS011;8016;49.928;9.372;2022-08-03T04:50:47;3.87;;;3.57;;
15831;SDS011;8016;49.928;9.372;2022-08-03T04:53:13;4.40;;;4.00;;
15831;SDS011;8016;49.928;9.372;2022-08-03T04:55:40;4.37;;;3.97;;
15831;SDS011;8016;49.928;9.372;2022-08-03T04:58:06;6.63;;;4.20;;
15831;SDS011;8016;49.928;9.372;2022-08-03T05:00:32;5.07;;;4.33;;
15831;SDS011;8016;49.928;9.372;2022-08-03T05:02:58;4.60;;;4.17;;
15831;SDS011;8016;49.928;9.372;2022-08-03T05:05:24;3.83;;;3.53;;
15831;SDS011;8016;49.928;9.372;2022-08-03T05:07:50;4.17;;;3.83;;
15831;SDS011;8016;49.928;9.372;2022-08-03T05:10:17;4.27;;;3.13;;
15831;SDS011;8016;49.928;9.372;2022-08-03T05:12:43;3.10;;;2.80;;
15831;SDS011;8016;49.928;9.372;2022-08-03T05:15:10;4.07;;;3.67;;
15831;SDS011;8016;49.928;9.372;2022-08-03T05:17:36;5.83;;;4.23;;
15831;SDS011;8016;49.928;9.372;2022-08-03T05:20:03;3.83;;;2.80;;
15831;SDS011;8016;49.928;9.372;2022-08-03T05:22:29;5.87;;;3.40;;
15831;SDS011;8016;49.928;9.372;2022-08-03T05:24:55;4.23;;;3.03;;
15831;SDS011;8016;49.928;9.372;2022-08-03T05:27:21;3.40;;;2.47;;
15831;SDS011;8016;49.928;9.372;2022-08-03T05:29:48;3.83;;;3.10;;
15831;SDS011;8016;49.928;9.372;2022-08-03T05:32:14;6.00;;;3.20;;
15831;SDS011;8016;49.928;9.372;2022-08-03T05:34:40;5.57;;;2.83;;
15831;SDS011;8016;49.928;9.372;2022-08-03T05:37:06;8.37;;;4.70;;
15831;SDS011;8016;49.928;9.372;2022-08-03T05:39:33;8.77;;;4.17;;
15831;SDS011;8016;49.928;9.372;2022-08-03T05:41:59;7.33;;;3.53;;
15831;SDS011;8016;49.928;9.372;2022-08-03T05:44:25;6.77;;;3.00;;
15831;SDS011;8016;49.928;9.372;2022-08-03T05:46:51;3.70;;;2.70;;
15831;SDS011;8016;49.928;9.372;2022-08-03T05:49:18;3.67;;;2.40;;
15831;SDS011;8016;49.928;9.372;2022-08-03T05:51:44;2.83;;;2.03;;
15831;SDS011;8016;49.928;9.372;2022-08-03T05:54:10;2.50;;;2.30;;
15831;SDS011;8016;49.928;9.372;2022-08-03T05:56:36;2.93;;;2.00;;
15831;SDS011;8016;49.928;9.372;2022-08-03T05:59:02;2.40;;;2.20;;
15831;SDS011;8016;49.928;9.372;2022-08-03T06:01:28;3.13;;;1.97;;
15831;SDS011;8016;49.928;9.372;2022-08-03T06:03:56;2.33;;;2.13;;
15831;SDS011;8016;49.928;9.372;2022-08-03T06:06:22;2.10;;;1.90;;
15831;SDS011;8016;49.928;9.372;2022-08-03T06:08:49;2.43;;;1.73;;
15831;SDS011;8016;49.928;9.372;2022-08-03T06:11:15;1.97;;;1.77;;
15831;SDS011;8016;49.928;9.372;2022-08-03T06:13:41;2.47;;;1.80;;
15831;SDS011;8016;49.928;9.372;2022-08-03T06:16:07;2.33;;;2.20;;
15831;SDS011;8016;49.928;9.372;2022-08-03T06:18:33;3.13;;;2.00;;
15831;SDS011;8016;49.928;9.372;2022-08-03T06:21:00;2.50;;;2.10;;
15831;SDS011;8016;49.928;9.372;2022-08-03T06:23:26;3.07;;;1.70;;
15831;SDS011;8016;49.928;9.372;2022-08-03T06:25:52;2.00;;;1.90;;
15831;SDS011;8016;49.928;9.372;2022-08-03T06:28:18;2.05;;;1.85;;
15831;SDS011;8016;49.928;9.372;2022-08-03T06:30:44;2.17;;;1.77;;
15831;SDS011;8016;49.928;9.372;2022-08-03T06:33:10;1.53;;;1.43;;
15831;SDS011;8016;49.928;9.372;2022-08-03T06:35:36;4.10;;;1.90;;
15831;SDS011;8016;49.928;9.372;2022-08-03T06:38:02;3.10;;;1.83;;
15831;SDS011;8016;49.928;9.372;2022-08-03T06:40:28;2.17;;;1.90;;
15831;SDS011;8016;49.928;9.372;2022-08-03T06:42:58;1.67;;;1.57;;
15831;SDS011;8016;49.928;9.372;2022-08-03T06:45:25;3.80;;;2.43;;
15831;SDS011;8016;49.928;9.372;2022-08-03T06:48:02;2.23;;;1.60;;
15831;SDS011;8016;49.928;9.372;2022-08-03T06:50:29;2.60;;;1.80;;
15831;SDS011;8016;49.928;9.372;2022-08-03T06:52:55;2.03;;;1.63;;
15831;SDS011;8016;49.928;9.372;2022-08-03T06:55:21;2.20;;;1.83;;
15831;SDS011;8016;49.928;9.372;2022-08-03T06:57:47;2.30;;;2.10;;
15831;SDS011;8016;49.928;9.372;2022-08-03T07:00:13;1.90;;;1.80;;
15831;SDS011;8016;49.928;9.372;2022-08-03T07:02:39;3.60;;;1.90;;
15831;SDS011;8016;49.928;9.372;2022-08-03T07:05:06;1.97;;;1.80;;
15831;SDS011;8016;49.928;9.372;2022-08-03T07:07:32;1.93;;;1.83;;
15831;SDS011;8016;49.928;9.372;2022-08-03T07:09:58;2.20;;;1.57;;
15831;SDS011;8016;49.928;9.372;2022-08-03T07:12:25;2.23;;;1.60;;
15831;SDS011;8016;49.928;9.372;2022-08-03T07:14:51;2.77;;;1.90;;
15831;SDS011;8016;49.928;9.372;2022-08-03T07:17:17;2.03;;;1.70;;
15831;SDS011;8016;49.928;9.372;2022-08-03T07:19:43;1.90;;;1.80;;
15831;SDS011;8016;49.928;9.372;2022-08-03T07:22:09;12.07;;;10.97;;
15831;SDS011;8016;49.928;9.372;2022-08-03T07:24:35;1.87;;;1.77;;
15831;SDS011;8016;49.928;9.372;2022-08-03T07:27:01;1.63;;;1.53;;
15831;SDS011;8016;49.928;9.372;2022-08-03T07:29:27;1.43;;;1.33;;
15831;SDS011;8016;49.928;9.372;2022-08-03T07:31:53;1.50;;;1.40;;
15831;SDS011;8016;49.928;9.372;2022-08-03T07:34:19;1.60;;;1.47;;
15831;SDS011;8016;49.928;9.372;2022-08-03T07:36:45;3.47;;;2.00;;
15831;SDS011;8016;49.928;9.372;2022-08-03T07:39:11;5.20;;;1.70;;
15831;SDS011;8016;49.928;9.372;2022-08-03T07:41:37;1.70;;;1.60;;
15831;SDS011;8016;49.928;9.372;2022-08-03T07:44:03;2.23;;;1.83;;
15831;SDS011;8016;49.928;9.372;2022-08-03T07:46:29;3.13;;;1.60;;
15831;SDS011;8016;49.928;9.372;2022-08-03T07:48:55;1.47;;;1.30;;
15831;SDS011;8016;49.928;9.372;2022-08-03T07:51:21;1.80;;;1.50;;
15831;SDS011;8016;49.928;9.372;2022-08-03T07:53:47;3.07;;;1.60;;
15831;SDS011;8016;49.928;9.372;2022-08-03T07:56:13;4.93;;;1.70;;
15831;SDS011;8016;49.928;9.372;2022-08-03T07:58:40;2.03;;;1.88;;
15831;SDS011;8016;49.928;9.372;2022-08-03T08:01:06;1.30;;;1.20;;
15831;SDS011;8016;49.928;9.372;2022-08-03T08:03:32;1.48;;;1.38;;
15831;SDS011;8016;49.928;9.372;2022-08-03T08:05:58;4.20;;;1.63;;
15831;SDS011;8016;49.928;9.372;2022-08-03T08:08:24;1.52;;;1.33;;
15831;SDS011;8016;49.928;9.372;2022-08-03T08:10:50;2.55;;;1.30;;
15831;SDS011;8016;49.928;9.372;2022-08-03T08:13:16;2.58;;;1.42;;
15831;SDS011;8016;49.928;9.372;2022-08-03T08:15:42;1.83;;;1.30;;
15831;SDS011;8016;49.928;9.372;2022-08-03T08:18:08;1.40;;;1.30;;
15831;SDS011;8016;49.928;9.372;2022-08-03T08:20:35;1.33;;;1.20;;
15831;SDS011;8016;49.928;9.372;2022-08-03T08:23:05;2.08;;;1.60;;
15831;SDS011;8016;49.928;9.372;2022-08-03T08:25:32;1.40;;;1.30;;
15831;SDS011;8016;49.928;9.372;2022-08-03T08:27:58;2.92;;;1.45;;
15831;SDS011;8016;49.928;9.372;2022-08-03T08:30:26;1.65;;;1.55;;
15831;SDS011;8016;49.928;9.372;2022-08-03T08:32:52;2.95;;;1.30;;
15831;SDS011;8016;49.928;9.372;2022-08-03T08:35:18;1.17;;;1.10;;
15831;SDS011;8016;49.928;9.372;2022-08-03T08:37:44;2.85;;;1.55;;
15831;SDS011;8016;49.928;9.372;2022-08-03T08:40:11;1.40;;;1.30;;
15831;SDS011;8016;49.928;9.372;2022-08-03T08:42:38;1.42;;;1.30;;
15831;SDS011;8016;49.928;9.372;2022-08-03T08:45:04;3.00;;;1.25;;
15831;SDS011;8016;49.928;9.372;2022-08-03T08:47:32;2.42;;;1.15;;
15831;SDS011;8016;49.928;9.372;2022-08-03T08:49:58;1.35;;;1.25;;
15831;SDS011;8016;49.928;9.372;2022-08-03T08:52:25;2.90;;;1.20;;
15831;SDS011;8016;49.928;9.372;2022-08-03T08:54:55;2.20;;;1.10;;
15831;SDS011;8016;49.928;9.372;2022-08-03T08:57:23;2.00;;;1.60;;
15831;SDS011;8016;49.928;9.372;2022-08-03T08:59:50;1.70;;;1.20;;
15831;SDS011;8016;49.928;9.372;2022-08-03T09:02:19;1.52;;;1.15;;
15831;SDS011;8016;49.928;9.372;2022-08-03T09:04:45;1.38;;;1.10;;
15831;SDS011;8016;49.928;9.372;2022-08-03T09:07:12;1.55;;;0.90;;
15831;SDS011;8016;49.928;9.372;2022-08-03T09:09:38;2.80;;;1.23;;
15831;SDS011;8016;49.928;9.372;2022-08-03T09:12:06;4.60;;;1.30;;
15831;SDS011;8016;49.928;9.372;2022-08-03T09:14:32;1.10;;;1.00;;
15831;SDS011;8016;49.928;9.372;2022-08-03T09:16:59;4.35;;;1.45;;
15831;SDS011;8016;49.928;9.372;2022-08-03T09:19:29;5.38;;;1.40;;
15831;SDS011;8016;49.928;9.372;2022-08-03T09:22:06;4.00;;;1.40;;
15831;SDS011;8016;49.928;9.372;2022-08-03T09:24:33;2.17;;;1.27;;
15831;SDS011;8016;49.928;9.372;2022-08-03T09:26:59;2.75;;;1.50;;
15831;SDS011;8016;49.928;9.372;2022-08-03T09:29:25;1.92;;;1.25;;
15831;SDS011;8016;49.928;9.372;2022-08-03T09:31:58;2.75;;;1.42;;
15831;SDS011;8016;49.928;9.372;2022-08-03T09:34:24;2.78;;;1.30;;
15831;SDS011;8016;49.928;9.372;2022-08-03T09:36:52;2.55;;;1.20;;
15831;SDS011;8016;49.928;9.372;2022-08-03T09:39:19;1.30;;;1.20;;
15831;SDS011;8016;49.928;9.372;2022-08-03T09:41:47;2.28;;;1.35;;
15831;SDS011;8016;49.928;9.372;2022-08-03T09:44:13;1.92;;;1.00;;
15831;SDS011;8016;49.928;9.372;2022-08-03T09:47:14;1.55;;;1.27;;
15831;SDS011;8016;49.928;9.372;2022-08-03T09:49:32;2.65;;;1.13;;
15831;SDS011;8016;49.928;9.372;2022-08-03T09:52:10;1.35;;;1.20;;
15831;SDS011;8016;49.928;9.372;2022-08-03T09:54:36;1.67;;;1.40;;
15831;SDS011;8016;49.928;9.372;2022-08-03T09:57:02;1.92;;;1.20;;
15831;SDS011;8016;49.928;9.372;2022-08-03T09:59:29;2.67;;;1.27;;
15831;SDS011;8016;49.928;9.372;2022-08-03T10:01:56;1.98;;;1.23;;
15831;SDS011;8016;49.928;9.372;2022-08-03T10:04:22;3.28;;;1.40;;
15831;SDS011;8016;49.928;9.372;2022-08-03T10:07:05;1.40;;;1.30;;
15831;SDS011;8016;49.928;9.372;2022-08-03T10:09:32;8.35;;;1.30;;
15831;SDS011;8016;49.928;9.372;2022-08-03T10:12:05;1.70;;;1.33;;
15831;SDS011;8016;49.928;9.372;2022-08-03T10:14:31;3.38;;;1.27;;
15831;SDS011;8016;49.928;9.372;2022-08-03T10:16:58;2.67;;;1.45;;
15831;SDS011;8016;49.928;9.372;2022-08-03T10:19:24;2.38;;;1.35;;
15831;SDS011;8016;49.928;9.372;2022-08-03T10:21:55;1.60;;;1.50;;
15831;SDS011;8016;49.928;9.372;2022-08-03T10:24:25;1.50;;;1.40;;
15831;SDS011;8016;49.928;9.372;2022-08-03T10:26:54;2.05;;;1.17;;
15831;SDS011;8016;49.928;9.372;2022-08-03T10:29:23;2.35;;;1.45;;
15831;SDS011;8016;49.928;9.372;2022-08-03T10:31:51;2.75;;;1.70;;
15831;SDS011;8016;49.928;9.372;2022-08-03T10:34:23;2.13;;;1.55;;
15831;SDS011;8016;49.928;9.372;2022-08-03T10:36:51;2.20;;;2.00;;
15831;SDS011;8016;49.928;9.372;2022-08-03T10:39:17;2.35;;;1.50;;
15831;SDS011;8016;49.928;9.372;2022-08-03T10:41:44;2.65;;;1.95;;
15831;SDS011;8016;49.928;9.372;2022-08-03T10:44:18;4.10;;;1.80;;
15831;SDS011;8016;49.928;9.372;2022-08-03T10:46:44;2.38;;;1.55;;
15831;SDS011;8016;49.928;9.372;2022-08-03T10:49:15;2.25;;;2.03;;
15831;SDS011;8016;49.928;9.372;2022-08-03T10:51:43;2.67;;;1.60;;
15831;SDS011;8016;49.928;9.372;2022-08-03T10:56:53;1.83;;;1.65;;
15831;SDS011;8016;49.928;9.372;2022-08-03T11:02:10;4.72;;;1.85;;
15831;SDS011;8016;49.928;9.372;2022-08-03T11:04:37;2.28;;;1.92;;
15831;SDS011;8016;49.928;9.372;2022-08-03T11:09:42;2.30;;;1.80;;
15831;SDS011;8016;49.928;9.372;2022-08-03T11:14:54;2.28;;;1.80;;
15831;SDS011;8016;49.928;9.372;2022-08-03T11:17:20;2.35;;;1.77;;
15831;SDS011;8016;49.928;9.372;2022-08-03T11:19:47;2.17;;;1.90;;
15831;SDS011;8016;49.928;9.372;2022-08-03T11:22:14;1.52;;;1.42;;
15831;SDS011;8016;49.928;9.372;2022-08-03T11:37:33;1.88;;;1.60;;
15831;SDS011;8016;49.928;9.372;2022-08-03T11:39:59;8.98;;;2.33;;
15831;SDS011;8016;49.928;9.372;2022-08-03T11:47:19;4.55;;;1.90;;
15831;SDS011;8016;49.928;9.372;2022-08-03T11:49:45;2.38;;;1.80;;
15831;SDS011;8016;49.928;9.372;2022-08-03T11:52:11;2.40;;;1.92;;
15831;SDS011;8016;49.928;9.372;2022-08-03T11:54:38;3.03;;;1.80;;
15831;SDS011;8016;49.928;9.372;2022-08-03T11:57:04;1.83;;;1.73;;
15831;SDS011;8016;49.928;9.372;2022-08-03T11:59:34;3.83;;;1.70;;
15831;SDS011;8016;49.928;9.372;2022-08-03T12:02:11;2.25;;;2.05;;
15831;SDS011;8016;49.928;9.372;2022-08-03T12:04:48;5.70;;;1.70;;
15831;SDS011;8016;49.928;9.372;2022-08-03T12:07:14;3.20;;;1.50;;
15831;SDS011;8016;49.928;9.372;2022-08-03T12:09:41;2.90;;;1.60;;
15831;SDS011;8016;49.928;9.372;2022-08-03T12:12:07;2.05;;;1.40;;
15831;SDS011;8016;49.928;9.372;2022-08-03T12:14:33;1.50;;;1.40;;
15831;SDS011;8016;49.928;9.372;2022-08-03T12:16:59;2.65;;;1.73;;
15831;SDS011;8016;49.928;9.372;2022-08-03T12:19:25;2.08;;;1.55;;
15831;SDS011;8016;49.928;9.372;2022-08-03T12:21:51;2.20;;;1.60;;
15831;SDS011;8016;49.928;9.372;2022-08-03T12:24:17;1.80;;;1.70;;
15831;SDS011;8016;49.928;9.372;2022-08-03T12:26:44;2.28;;;1.50;;
15831;SDS011;8016;49.928;9.372;2022-08-03T12:29:17;4.22;;;1.98;;
15831;SDS011;8016;49.928;9.372;2022-08-03T12:31:44;2.45;;;1.63;;
15831;SDS011;8016;49.928;9.372;2022-08-03T12:34:10;1.60;;;1.50;;
15831;SDS011;8016;49.928;9.372;2022-08-03T12:36:37;1.63;;;1.52;;
15831;SDS011;8016;49.928;9.372;2022-08-03T12:39:04;4.38;;;1.38;;
15831;SDS011;8016;49.928;9.372;2022-08-03T12:41:35;2.75;;;1.70;;
15831;SDS011;8016;49.928;9.372;2022-08-03T12:44:02;1.60;;;1.50;;
15831;SDS011;8016;49.928;9.372;2022-08-03T12:46:31;2.75;;;1.90;;
15831;SDS011;8016;49.928;9.372;2022-08-03T12:51:32;3.90;;;1.40;;
15831;SDS011;8016;49.928;9.372;2022-08-03T12:53:58;1.60;;;1.50;;
15831;SDS011;8016;49.928;9.372;2022-08-03T12:56:24;1.70;;;1.60;;
15831;SDS011;8016;49.928;9.372;2022-08-03T12:58:50;3.05;;;1.77;;
15831;SDS011;8016;49.928;9.372;2022-08-03T13:01:17;5.43;;;1.70;;
15831;SDS011;8016;49.928;9.372;2022-08-03T13:03:44;4.18;;;1.50;;
15831;SDS011;8016;49.928;9.372;2022-08-03T13:06:11;6.03;;;1.75;;
15831;SDS011;8016;49.928;9.372;2022-08-03T13:08:38;1.50;;;1.40;;
15831;SDS011;8016;49.928;9.372;2022-08-03T13:14:02;3.53;;;1.75;;
15831;SDS011;8016;49.928;9.372;2022-08-03T13:16:28;1.48;;;1.38;;
15831;SDS011;8016;49.928;9.372;2022-08-03T13:18:54;1.90;;;1.40;;
15831;SDS011;8016;49.928;9.372;2022-08-03T13:21:20;1.60;;;1.50;;
15831;SDS011;8016;49.928;9.372;2022-08-03T13:23:46;1.67;;;1.58;;
15831;SDS011;8016;49.928;9.372;2022-08-03T13:26:12;1.63;;;1.52;;
15831;SDS011;8016;49.928;9.372;2022-08-03T13:28:38;1.83;;;1.63;;
15831;SDS011;8016;49.928;9.372;2022-08-03T13:31:05;1.63;;;1.50;;
15831;SDS011;8016;49.928;9.372;2022-08-03T13:33:31;2.47;;;1.52;;
15831;SDS011;8016;49.928;9.372;2022-08-03T13:35:57;1.50;;;1.40;;
15831;SDS011;8016;49.928;9.372;2022-08-03T13:38:23;4.43;;;1.58;;
15831;SDS011;8016;49.928;9.372;2022-08-03T13:40:52;2.85;;;1.60;;
15831;SDS011;8016;49.928;9.372;2022-08-03T13:43:19;3.15;;;1.63;;
15831;SDS011;8016;49.928;9.372;2022-08-03T13:45:46;2.35;;;1.30;;
15831;SDS011;8016;49.928;9.372;2022-08-03T13:48:12;4.53;;;1.73;;
15831;SDS011;8016;49.928;9.372;2022-08-03T13:50:38;2.58;;;1.30;;
15831;SDS011;8016;49.928;9.372;2022-08-03T13:53:07;2.13;;;1.60;;
15831;SDS011;8016;49.928;9.372;2022-08-03T13:55:33;1.83;;;1.50;;
15831;SDS011;8016;49.928;9.372;2022-08-03T13:57:59;3.17;;;1.40;;
15831;SDS011;8016;49.928;9.372;2022-08-03T14:00:25;4.40;;;1.63;;
15831;SDS011;8016;49.928;9.372;2022-08-03T14:02:51;1.90;;;1.63;;
15831;SDS011;8016;49.928;9.372;2022-08-03T14:05:17;1.85;;;1.70;;
15831;SDS011;8016;49.928;9.372;2022-08-03T14:07:43;3.65;;;1.38;;
15831;SDS011;8016;49.928;9.372;2022-08-03T14:10:09;3.72;;;2.28;;
15831;SDS011;8016;49.928;9.372;2022-08-03T14:12:35;1.63;;;1.52;;
15831;SDS011;8016;49.928;9.372;2022-08-03T14:15:01;1.45;;;1.35;;
15831;SDS011;8016;49.928;9.372;2022-08-03T14:17:28;1.80;;;1.70;;
15831;SDS011;8016;49.928;9.372;2022-08-03T14:19:54;2.55;;;1.48;;
15831;SDS011;8016;49.928;9.372;2022-08-03T14:22:20;2.53;;;1.60;;
15831;SDS011;8016;49.928;9.372;2022-08-03T14:24:46;2.05;;;1.75;;
15831;SDS011;8016;49.928;9.372;2022-08-03T14:27:12;1.40;;;1.30;;
15831;SDS011;8016;49.928;9.372;2022-08-03T14:29:38;2.65;;;1.40;;
15831;SDS011;8016;49.928;9.372;2022-08-03T14:32:04;2.63;;;1.55;;
15831;SDS011;8016;49.928;9.372;2022-08-03T14:34:30;1.92;;;1.70;;
15831;SDS011;8016;49.928;9.372;2022-08-03T14:36:56;2.22;;;1.52;;
15831;SDS011;8016;49.928;9.372;2022-08-03T14:39:24;2.60;;;1.60;;
15831;SDS011;8016;49.928;9.372;2022-08-03T14:41:50;1.38;;;1.20;;
15831;SDS011;8016;49.928;9.372;2022-08-03T14:44:16;2.08;;;1.60;;
15831;SDS011;8016;49.928;9.372;2022-08-03T14:46:42;2.03;;;1.50;;
15831;SDS011;8016;49.928;9.372;2022-08-03T14:49:08;1.50;;;1.40;;
15831;SDS011;8016;49.928;9.372;2022-08-03T14:51:34;1.75;;;1.60;;
15831;SDS011;8016;49.928;9.372;2022-08-03T14:54:00;1.77;;;1.48;;
15831;SDS011;8016;49.928;9.372;2022-08-03T14:56:26;2.13;;;1.55;;
15831;SDS011;8016;49.928;9.372;2022-08-03T14:58:53;1.60;;;1.50;;
15831;SDS011;8016;49.928;9.372;2022-08-03T15:01:19;1.65;;;1.55;;
15831;SDS011;8016;49.928;9.372;2022-08-03T15:03:45;1.60;;;1.50;;
15831;SDS011;8016;49.928;9.372;2022-08-03T15:06:12;1.45;;;1.35;;
15831;SDS011;8016;49.928;9.372;2022-08-03T15:08:38;2.05;;;1.60;;
15831;SDS011;8016;49.928;9.372;2022-08-03T15:11:04;2.00;;;1.70;;
15831;SDS011;8016;49.928;9.372;2022-08-03T15:13:30;1.85;;;1.40;;
15831;SDS011;8016;49.928;9.372;2022-08-03T15:15:56;1.52;;;1.38;;
15831;SDS011;8016;49.928;9.372;2022-08-03T15:18:22;3.13;;;1.40;;
15831;SDS011;8016;49.928;9.372;2022-08-03T15:20:48;1.60;;;1.50;;
15831;SDS011;8016;49.928;9.372;2022-08-03T15:23:14;2.03;;;1.63;;
15831;SDS011;8016;49.928;9.372;2022-08-03T15:25:44;2.13;;;1.40;;
15831;SDS011;8016;49.928;9.372;2022-08-03T15:28:10;1.65;;;1.40;;
15831;SDS011;8016;49.928;9.372;2022-08-03T15:30:36;1.65;;;1.55;;
15831;SDS011;8016;49.928;9.372;2022-08-03T15:33:03;1.63;;;1.52;;
15831;SDS011;8016;49.928;9.372;2022-08-03T15:35:29;1.77;;;1.67;;
15831;SDS011;8016;49.928;9.372;2022-08-03T15:37:55;4.20;;;1.70;;
15831;SDS011;8016;49.928;9.372;2022-08-03T15:40:21;1.90;;;1.80;;
15831;SDS011;8016;49.928;9.372;2022-08-03T15:42:47;1.83;;;1.60;;